createdAt,value
2017-04-03T00:00:00.839Z,73907
2017-04-03T00:00:10.693Z,73905
2017-04-03T00:00:20.781Z,73905
2017-04-03T00:00:30.875Z,73908
2017-04-03T00:00:40.679Z,73904
2017-04-03T00:00:50.772Z,73907
2017-04-03T00:01:00.574Z,73908
2017-04-03T00:01:10.669Z,73909
2017-04-03T00:01:20.479Z,73907
2017-04-03T00:01:30.289Z,73907
2017-04-03T00:01:40.381Z,73905
2017-04-03T00:01:50.477Z,73906
2017-04-03T00:02:00.568Z,73905
2017-04-03T00:02:10.658Z,73906
2017-04-03T00:02:20.755Z,73905
2017-04-03T00:02:30.844Z,73905
2017-04-03T00:02:40.940Z,73905
2017-04-03T00:02:51.031Z,73905
2017-04-03T00:03:01.122Z,73902
2017-04-03T00:03:11.214Z,73904
2017-04-03T00:03:21.304Z,73909
2017-04-03T00:03:31.398Z,73904
2017-04-03T00:03:41.491Z,73904
2017-04-03T00:03:51.582Z,73904
2017-04-03T00:04:01.677Z,73905
2017-04-03T00:04:11.475Z,73904
2017-04-03T00:04:20.986Z,73906
2017-04-03T00:04:31.075Z,73909
2017-04-03T00:04:40.875Z,73903
2017-04-03T00:04:50.967Z,73906
2017-04-03T00:05:01.058Z,73906
2017-04-03T00:05:10.859Z,73907
2017-04-03T00:05:20.663Z,73903
2017-04-03T00:05:30.798Z,73906
2017-04-03T00:05:40.607Z,73904
2017-04-03T00:05:50.716Z,73908
2017-04-03T00:06:00.806Z,73906
2017-04-03T00:06:10.610Z,73911
2017-04-03T00:06:20.706Z,73906
2017-04-03T00:06:30.800Z,73911
2017-04-03T00:06:40.885Z,73909
2017-04-03T00:06:50.689Z,73906
2017-04-03T00:07:00.495Z,73903
2017-04-03T00:07:10.344Z,73909
2017-04-03T00:07:20.145Z,73907
2017-04-03T00:07:30.236Z,73904
2017-04-03T00:07:40.328Z,73908
2017-04-03T00:07:50.424Z,73910
2017-04-03T00:08:00.551Z,73913
2017-04-03T00:08:10.644Z,73909
2017-04-03T00:08:20.737Z,73910
2017-04-03T00:08:30.545Z,73912
2017-04-03T00:08:40.343Z,73910
2017-04-03T00:08:50.148Z,73910
2017-04-03T00:09:00.237Z,73910
2017-04-03T00:09:10.045Z,73910
2017-04-03T00:09:20.130Z,73908
2017-04-03T00:09:30.238Z,73908
2017-04-03T00:09:40.331Z,73911
2017-04-03T00:09:50.424Z,73908
2017-04-03T00:10:00.233Z,73908
2017-04-03T00:10:10.336Z,73907
2017-04-03T00:10:20.139Z,73907
2017-04-03T00:10:30.230Z,73907
2017-04-03T00:10:40.320Z,73907
2017-04-03T00:10:50.133Z,73910
2017-04-03T00:11:00.226Z,73910
2017-04-03T00:11:10.025Z,73908
2017-04-03T00:11:19.825Z,73908
2017-04-03T00:11:29.917Z,73907
2017-04-03T00:11:40.008Z,73909
2017-04-03T00:11:49.850Z,73909
2017-04-03T00:11:59.944Z,73909
2017-04-03T00:12:09.742Z,73905
2017-04-03T00:12:19.545Z,73907
2017-04-03T00:12:29.643Z,73909
2017-04-03T00:12:39.736Z,73906
2017-04-03T00:12:49.539Z,73910
2017-04-03T00:12:59.631Z,73909
2017-04-03T00:13:08.863Z,73911
2017-04-03T00:13:18.953Z,73910
2017-04-03T00:13:28.753Z,73910
2017-04-03T00:13:38.840Z,73912
2017-04-03T00:13:48.930Z,73908
2017-04-03T00:13:58.733Z,73909
2017-04-03T00:14:08.574Z,73909
2017-04-03T00:14:18.665Z,73908
2017-04-03T00:14:28.465Z,73909
2017-04-03T00:14:38.558Z,73907
2017-04-03T00:14:48.371Z,73907
2017-04-03T00:14:58.469Z,73909
2017-04-03T00:15:08.272Z,73910
2017-04-03T00:15:18.362Z,73911
2017-04-03T00:15:28.165Z,73908
2017-04-03T00:15:38.255Z,73909
2017-04-03T00:15:48.351Z,73910
2017-04-03T00:15:58.155Z,73910
2017-04-03T00:16:08.249Z,73908
2017-04-03T00:16:18.347Z,73905
2017-04-03T00:16:28.441Z,73910
2017-04-03T00:16:38.248Z,73911
2017-04-03T00:16:48.342Z,73908
2017-04-03T00:16:58.440Z,73912
2017-04-03T00:17:08.536Z,73910
2017-04-03T00:17:18.628Z,73910
2017-04-03T00:17:28.721Z,73913
2017-04-03T00:17:38.520Z,73910
2017-04-03T00:17:48.615Z,73910
2017-04-03T00:17:58.417Z,73909
2017-04-03T00:18:08.511Z,73910
2017-04-03T00:18:18.609Z,73907
2017-04-03T00:18:28.129Z,73908
2017-04-03T00:18:38.214Z,73908
2017-04-03T00:18:48.306Z,73909
2017-04-03T00:18:58.399Z,73907
2017-04-03T00:19:07.918Z,73905
2017-04-03T00:19:17.721Z,73907
2017-04-03T00:19:27.522Z,73911
2017-04-03T00:19:37.619Z,73907
2017-04-03T00:19:47.428Z,73905
2017-04-03T00:19:57.236Z,73905
2017-04-03T00:20:06.753Z,73908
2017-04-03T00:20:16.842Z,73905
2017-04-03T00:20:26.936Z,73909
2017-04-03T00:20:36.687Z,73906
2017-04-03T00:20:46.787Z,73905
2017-04-03T00:20:56.881Z,73906
2017-04-03T00:21:06.974Z,73906
2017-04-03T00:21:17.068Z,73906
2017-04-03T00:21:27.165Z,73903
2017-04-03T00:21:37.257Z,73907
2017-04-03T00:21:47.348Z,73906
2017-04-03T00:21:57.437Z,73904
2017-04-03T00:22:07.246Z,73904
2017-04-03T00:22:17.062Z,73903
2017-04-03T00:22:26.864Z,73904
2017-04-03T00:22:36.955Z,73902
2017-04-03T00:22:46.760Z,73907
2017-04-03T00:22:56.565Z,73900
2017-04-03T00:23:06.661Z,73908
2017-04-03T00:23:16.745Z,73905
2017-04-03T00:23:26.832Z,73904
2017-04-03T00:23:36.925Z,73904
2017-04-03T00:23:46.739Z,73905
2017-04-03T00:23:56.255Z,73905
2017-04-03T00:24:06.056Z,73903
2017-04-03T00:24:16.150Z,73903
2017-04-03T00:24:26.246Z,73905
2017-04-03T00:24:36.063Z,73907
2017-04-03T00:24:46.156Z,73906
2017-04-03T00:24:56.244Z,73902
2017-04-03T00:25:06.050Z,73904
2017-04-03T00:25:15.856Z,73910
2017-04-03T00:25:25.944Z,73903
2017-04-03T00:25:36.044Z,73904
2017-04-03T00:25:46.153Z,73907
2017-04-03T00:25:56.246Z,73904
2017-04-03T00:26:06.344Z,73909
2017-04-03T00:26:16.147Z,73905
2017-04-03T00:26:25.958Z,73906
2017-04-03T00:26:36.045Z,73906
2017-04-03T00:26:46.136Z,73904
2017-04-03T00:26:56.231Z,73903
2017-04-03T00:27:06.043Z,73902
2017-04-03T00:27:15.841Z,73903
2017-04-03T00:27:25.935Z,73903
2017-04-03T00:27:36.030Z,73903
2017-04-03T00:27:46.125Z,73901
2017-04-03T00:27:55.925Z,73900
2017-04-03T00:28:06.016Z,73904
2017-04-03T00:28:16.105Z,73903
2017-04-03T00:28:26.238Z,73906
2017-04-03T00:28:36.338Z,73905
2017-04-03T00:28:46.435Z,73901
2017-04-03T00:28:56.536Z,73904
2017-04-03T00:29:06.342Z,73903
2017-04-03T00:29:16.141Z,73900
2017-04-03T00:29:26.234Z,73906
2017-04-03T00:29:36.331Z,73905
2017-04-03T00:29:46.421Z,73908
2017-04-03T00:29:56.517Z,73903
2017-04-03T00:30:06.320Z,73899
2017-04-03T00:30:16.123Z,73901
2017-04-03T00:30:26.216Z,73908
2017-04-03T00:30:36.308Z,73903
2017-04-03T00:30:46.437Z,73906
2017-04-03T00:30:56.531Z,73901
2017-04-03T00:31:06.342Z,73906
2017-04-03T00:31:16.435Z,73903
2017-04-03T00:31:26.528Z,73900
2017-04-03T00:31:36.621Z,73901
2017-04-03T00:31:46.714Z,73903
2017-04-03T00:31:56.803Z,73900
2017-04-03T00:32:06.612Z,73899
2017-04-03T00:32:16.136Z,73898
2017-04-03T00:32:26.223Z,73905
2017-04-03T00:32:36.322Z,73900
2017-04-03T00:32:46.414Z,73904
2017-04-03T00:32:56.219Z,73905
2017-04-03T00:33:06.024Z,73902
2017-04-03T00:33:15.828Z,73898
2017-04-03T00:33:25.917Z,73901
2017-04-03T00:33:36.011Z,73903
2017-04-03T00:33:46.100Z,73901
2017-04-03T00:33:56.188Z,73898
2017-04-03T00:34:06.279Z,73899
2017-04-03T00:34:16.369Z,73901
2017-04-03T00:34:26.460Z,73898
2017-04-03T00:34:36.551Z,73900
2017-04-03T00:34:46.644Z,73899
2017-04-03T00:34:56.739Z,73901
2017-04-03T00:35:06.833Z,73902
2017-04-03T00:35:16.921Z,73900
2017-04-03T00:35:27.011Z,73898
2017-04-03T00:35:37.106Z,73900
2017-04-03T00:35:46.911Z,73897
2017-04-03T00:35:57.002Z,73899
2017-04-03T00:36:07.094Z,73896
2017-04-03T00:36:17.192Z,73896
2017-04-03T00:36:27.284Z,73896
2017-04-03T00:36:37.380Z,73896
2017-04-03T00:36:47.482Z,73894
2017-04-03T00:36:57.289Z,73898
2017-04-03T00:37:07.379Z,73894
2017-04-03T00:37:17.466Z,73900
2017-04-03T00:37:27.269Z,73896
2017-04-03T00:37:37.355Z,73898
2017-04-03T00:37:47.441Z,73898
2017-04-03T00:37:57.249Z,73897
2017-04-03T00:38:07.337Z,73895
2017-04-03T00:38:17.435Z,73898
2017-04-03T00:38:27.529Z,73900
2017-04-03T00:38:37.675Z,73891
2017-04-03T00:38:47.765Z,73895
2017-04-03T00:38:57.569Z,73895
2017-04-03T00:39:07.656Z,73893
2017-04-03T00:39:17.751Z,73899
2017-04-03T00:39:27.562Z,73896
2017-04-03T00:39:37.653Z,73895
2017-04-03T00:39:47.785Z,73896
2017-04-03T00:39:57.876Z,73895
2017-04-03T00:40:07.683Z,73897
2017-04-03T00:40:17.486Z,73895
2017-04-03T00:40:27.577Z,73898
2017-04-03T00:40:37.668Z,73898
2017-04-03T00:40:47.770Z,73894
2017-04-03T00:40:57.862Z,73896
2017-04-03T00:41:07.957Z,73896
2017-04-03T00:41:18.052Z,73897
2017-04-03T00:41:28.144Z,73893
2017-04-03T00:41:38.240Z,73897
2017-04-03T00:41:48.338Z,73896
2017-04-03T00:41:58.147Z,73897
2017-04-03T00:42:08.237Z,73897
2017-04-03T00:42:18.325Z,73899
2017-04-03T00:42:28.411Z,73896
2017-04-03T00:42:38.503Z,73897
2017-04-03T00:42:48.595Z,73897
2017-04-03T00:42:58.684Z,73897
2017-04-03T00:43:08.487Z,73895
2017-04-03T00:43:18.620Z,73896
2017-04-03T00:43:28.430Z,73895
2017-04-03T00:43:38.518Z,73893
2017-04-03T00:43:48.606Z,73896
2017-04-03T00:43:58.701Z,73900
2017-04-03T00:44:08.502Z,73895
2017-04-03T00:44:18.594Z,73898
2017-04-03T00:44:28.694Z,73898
2017-04-03T00:44:38.786Z,73898
2017-04-03T00:44:48.881Z,73898
2017-04-03T00:44:58.969Z,73897
2017-04-03T00:45:09.062Z,73896
2017-04-03T00:45:19.151Z,73899
2017-04-03T00:45:29.245Z,73895
2017-04-03T00:45:39.051Z,73899
2017-04-03T00:45:49.146Z,73902
2017-04-03T00:45:58.990Z,73900
2017-04-03T00:46:09.079Z,73901
2017-04-03T00:46:19.176Z,73899
2017-04-03T00:46:28.982Z,73900
2017-04-03T00:46:39.067Z,73898
2017-04-03T00:46:49.166Z,73898
2017-04-03T00:46:59.255Z,73896
2017-04-03T00:47:09.060Z,73899
2017-04-03T00:47:19.156Z,73895
2017-04-03T00:47:28.957Z,73897
2017-04-03T00:47:38.475Z,73902
2017-04-03T00:47:48.563Z,73900
2017-04-03T00:47:58.689Z,73900
2017-04-03T00:48:08.783Z,73896
2017-04-03T00:48:18.873Z,73902
2017-04-03T00:48:28.961Z,73903
2017-04-03T00:48:38.763Z,73897
2017-04-03T00:48:48.853Z,73902
2017-04-03T00:48:58.942Z,73899
2017-04-03T00:49:09.070Z,73900
2017-04-03T00:49:19.156Z,73903
2017-04-03T00:49:29.240Z,73902
2017-04-03T00:49:39.041Z,73901
2017-04-03T00:49:49.140Z,73901
2017-04-03T00:49:59.235Z,73906
2017-04-03T00:50:09.325Z,73899
2017-04-03T00:50:19.125Z,73903
2017-04-03T00:50:29.215Z,73903
2017-04-03T00:50:39.308Z,73903
2017-04-03T00:50:49.121Z,73902
2017-04-03T00:50:58.922Z,73899
2017-04-03T00:51:09.016Z,73903
2017-04-03T00:51:19.113Z,73900
2017-04-03T00:51:29.208Z,73900
2017-04-03T00:51:39.014Z,73901
2017-04-03T00:51:49.109Z,73902
2017-04-03T00:51:59.201Z,73901
2017-04-03T00:52:09.302Z,73901
2017-04-03T00:52:19.106Z,73899
2017-04-03T00:52:29.193Z,73902
2017-04-03T00:52:39.280Z,73906
2017-04-03T00:52:49.367Z,73898
2017-04-03T00:52:59.458Z,73904
2017-04-03T00:53:09.551Z,73902
2017-04-03T00:53:19.355Z,73900
2017-04-03T00:53:29.444Z,73900
2017-04-03T00:53:38.962Z,73902
2017-04-03T00:53:49.047Z,73904
2017-04-03T00:53:59.134Z,73905
2017-04-03T00:54:09.220Z,73903
2017-04-03T00:54:19.026Z,73903
2017-04-03T00:54:28.828Z,73902
2017-04-03T00:54:38.924Z,73901
2017-04-03T00:54:49.014Z,73901
2017-04-03T00:54:59.103Z,73904
2017-04-03T00:55:09.192Z,73905
2017-04-03T00:55:19.292Z,73905
2017-04-03T00:55:29.389Z,73906
2017-04-03T00:55:39.479Z,73902
2017-04-03T00:55:49.001Z,73902
2017-04-03T00:55:59.097Z,73902
2017-04-03T00:56:08.903Z,73900
2017-04-03T00:56:19.000Z,73904
2017-04-03T00:56:29.088Z,73906
2017-04-03T00:56:38.901Z,73901
2017-04-03T00:56:48.985Z,73904
2017-04-03T00:56:59.078Z,73906
2017-04-03T00:57:08.927Z,73903
2017-04-03T00:57:19.021Z,73911
2017-04-03T00:57:29.116Z,73902
2017-04-03T00:57:39.204Z,73901
2017-04-03T00:57:49.295Z,73907
2017-04-03T00:57:58.815Z,73907
2017-04-03T00:58:08.911Z,73904
2017-04-03T00:58:18.998Z,73907
2017-04-03T00:58:29.086Z,73905
2017-04-03T00:58:38.894Z,73906
2017-04-03T00:58:48.694Z,73908
2017-04-03T00:58:58.786Z,73906
2017-04-03T00:59:08.874Z,73903
2017-04-03T00:59:18.964Z,73906
2017-04-03T00:59:29.054Z,73908
2017-04-03T00:59:38.856Z,73908
2017-04-03T00:59:48.947Z,73904
2017-04-03T00:59:59.041Z,73908
2017-04-03T01:00:09.131Z,73907
2017-04-03T01:00:19.226Z,73911
2017-04-03T01:00:29.036Z,73905
2017-04-03T01:00:39.131Z,73907
2017-04-03T01:00:49.223Z,73909
2017-04-03T01:00:59.317Z,73906
2017-04-03T01:01:09.125Z,73908
2017-04-03T01:01:19.214Z,73906
2017-04-03T01:01:29.306Z,73906
2017-04-03T01:01:39.115Z,73910
2017-04-03T01:01:49.203Z,73907
2017-04-03T01:01:59.303Z,73907
2017-04-03T01:02:09.397Z,73904
2017-04-03T01:02:19.491Z,73904
2017-04-03T01:02:29.587Z,73907
2017-04-03T01:02:39.387Z,73908
2017-04-03T01:02:49.474Z,73907
2017-04-03T01:02:59.567Z,73906
2017-04-03T01:03:09.659Z,73908
2017-04-03T01:03:19.759Z,73909
2017-04-03T01:03:29.846Z,73907
2017-04-03T01:03:39.649Z,73905
2017-04-03T01:03:49.752Z,73910
2017-04-03T01:03:59.803Z,73908
2017-04-03T01:04:09.896Z,73906
2017-04-03T01:04:19.989Z,73903
2017-04-03T01:04:30.081Z,73906
2017-04-03T01:04:40.175Z,73908
2017-04-03T01:04:50.265Z,73906
2017-04-03T01:05:00.352Z,73908
2017-04-03T01:05:10.158Z,73905
2017-04-03T01:05:20.258Z,73908
2017-04-03T01:05:30.354Z,73907
2017-04-03T01:05:40.157Z,73907
2017-04-03T01:05:50.251Z,73908
2017-04-03T01:06:00.343Z,73905
2017-04-03T01:06:10.155Z,73906
2017-04-03T01:06:20.250Z,73906
2017-04-03T01:06:30.051Z,73905
2017-04-03T01:06:39.863Z,73905
2017-04-03T01:06:49.385Z,73907
2017-04-03T01:06:59.485Z,73904
2017-04-03T01:07:09.579Z,73904
2017-04-03T01:07:19.382Z,73908
2017-04-03T01:07:29.472Z,73906
2017-04-03T01:07:39.567Z,73905
2017-04-03T01:07:49.367Z,73906
2017-04-03T01:07:59.167Z,73907
2017-04-03T01:08:08.969Z,73908
2017-04-03T01:08:18.766Z,73905
2017-04-03T01:08:28.855Z,73907
2017-04-03T01:08:38.949Z,73906
2017-04-03T01:08:48.462Z,73908
2017-04-03T01:08:58.263Z,73910
2017-04-03T01:09:08.068Z,73911
2017-04-03T01:09:17.871Z,73909
2017-04-03T01:09:27.677Z,73911
2017-04-03T01:09:37.769Z,73909
2017-04-03T01:09:47.865Z,73912
2017-04-03T01:09:57.956Z,73909
2017-04-03T01:10:08.045Z,73908
2017-04-03T01:10:18.137Z,73911
2017-04-03T01:10:28.234Z,73907
2017-04-03T01:10:38.044Z,73907
2017-04-03T01:10:47.851Z,73908
2017-04-03T01:10:57.941Z,73907
2017-04-03T01:11:07.456Z,73910
2017-04-03T01:11:17.549Z,73909
2017-04-03T01:11:27.639Z,73910
2017-04-03T01:11:37.730Z,73910
2017-04-03T01:11:47.541Z,73909
2017-04-03T01:11:57.632Z,73909
2017-04-03T01:12:07.717Z,73909
2017-04-03T01:12:17.525Z,73907
2017-04-03T01:12:27.622Z,73905
2017-04-03T01:12:37.715Z,73910
2017-04-03T01:12:47.517Z,73906
2017-04-03T01:12:57.334Z,73906
2017-04-03T01:13:07.424Z,73906
2017-04-03T01:13:17.514Z,73904
2017-04-03T01:13:27.317Z,73906
2017-04-03T01:13:37.114Z,73909
2017-04-03T01:13:46.920Z,73906
2017-04-03T01:13:57.013Z,73906
2017-04-03T01:14:07.107Z,73910
2017-04-03T01:14:16.911Z,73908
2017-04-03T01:14:26.996Z,73904
2017-04-03T01:14:37.090Z,73907
2017-04-03T01:14:47.185Z,73906
2017-04-03T01:14:57.293Z,73907
2017-04-03T01:15:07.416Z,73908
2017-04-03T01:15:16.939Z,73908
2017-04-03T01:15:27.028Z,73904
2017-04-03T01:15:37.130Z,73905
2017-04-03T01:15:47.219Z,73903
2017-04-03T01:15:57.317Z,73906
2017-04-03T01:16:07.444Z,73905
2017-04-03T01:16:17.297Z,73904
2017-04-03T01:16:27.099Z,73907
2017-04-03T01:16:37.192Z,73906
2017-04-03T01:16:47.281Z,73907
2017-04-03T01:16:57.383Z,73907
2017-04-03T01:17:07.477Z,73910
2017-04-03T01:17:17.328Z,73908
2017-04-03T01:17:27.422Z,73906
2017-04-03T01:17:37.272Z,73910
2017-04-03T01:17:47.367Z,73907
2017-04-03T01:17:57.455Z,73909
2017-04-03T01:18:07.552Z,73906
2017-04-03T01:18:17.394Z,73905
2017-04-03T01:18:27.204Z,73908
2017-04-03T01:18:37.301Z,73905
2017-04-03T01:18:47.101Z,73909
2017-04-03T01:18:57.189Z,73907
2017-04-03T01:19:07.282Z,73906
2017-04-03T01:19:17.373Z,73908
2017-04-03T01:19:27.463Z,73907
2017-04-03T01:19:37.552Z,73905
2017-04-03T01:19:47.639Z,73907
2017-04-03T01:19:57.440Z,73910
2017-04-03T01:20:07.534Z,73908
2017-04-03T01:20:17.622Z,73909
2017-04-03T01:20:27.430Z,73907
2017-04-03T01:20:37.521Z,73906
2017-04-03T01:20:47.042Z,73909
2017-04-03T01:20:57.130Z,73908
2017-04-03T01:21:07.217Z,73907
2017-04-03T01:21:17.305Z,73911
2017-04-03T01:21:26.824Z,73907
2017-04-03T01:21:36.343Z,73909
2017-04-03T01:21:46.434Z,73908
2017-04-03T01:21:56.240Z,73910
2017-04-03T01:22:06.044Z,73909
2017-04-03T01:22:16.141Z,73906
2017-04-03T01:22:25.949Z,73910
2017-04-03T01:22:36.037Z,73911
2017-04-03T01:22:45.838Z,73907
2017-04-03T01:22:55.924Z,73908
2017-04-03T01:23:06.015Z,73907
2017-04-03T01:23:16.107Z,73909
2017-04-03T01:23:26.199Z,73907
2017-04-03T01:23:36.290Z,73910
2017-04-03T01:23:46.094Z,73909
2017-04-03T01:23:56.193Z,73909
2017-04-03T01:24:06.284Z,73908
2017-04-03T01:24:16.373Z,73911
2017-04-03T01:24:26.462Z,73906
2017-04-03T01:24:36.561Z,73910
2017-04-03T01:24:46.657Z,73908
2017-04-03T01:24:56.461Z,73907
2017-04-03T01:25:06.265Z,73906
2017-04-03T01:25:16.353Z,73904
2017-04-03T01:25:26.445Z,73908
2017-04-03T01:25:36.252Z,73906
2017-04-03T01:25:46.342Z,73905
2017-04-03T01:25:56.431Z,73906
2017-04-03T01:26:06.532Z,73909
2017-04-03T01:26:16.636Z,73904
2017-04-03T01:26:26.726Z,73903
2017-04-03T01:26:36.818Z,73904
2017-04-03T01:26:46.619Z,73900
2017-04-03T01:26:56.468Z,73902
2017-04-03T01:27:06.279Z,73903
2017-04-03T01:27:16.373Z,73900
2017-04-03T01:27:26.472Z,73903
2017-04-03T01:27:36.277Z,73902
2017-04-03T01:27:46.372Z,73903
2017-04-03T01:27:56.459Z,73901
2017-04-03T01:28:06.272Z,73901
2017-04-03T01:28:16.357Z,73901
2017-04-03T01:28:26.449Z,73901
2017-04-03T01:28:36.250Z,73899
2017-04-03T01:28:46.347Z,73905
2017-04-03T01:28:56.436Z,73900
2017-04-03T01:29:06.523Z,73903
2017-04-03T01:29:16.037Z,73902
2017-04-03T01:29:26.127Z,73903
2017-04-03T01:29:36.227Z,73901
2017-04-03T01:29:46.028Z,73902
2017-04-03T01:29:56.116Z,73903
2017-04-03T01:30:05.638Z,73905
2017-04-03T01:30:15.199Z,73902
2017-04-03T01:30:24.987Z,73902
2017-04-03T01:30:35.080Z,73900
2017-04-03T01:30:44.886Z,73903
2017-04-03T01:30:54.407Z,73901
2017-04-03T01:31:04.495Z,73903
2017-04-03T01:31:14.297Z,73903
2017-04-03T01:31:24.098Z,73902
2017-04-03T01:31:33.899Z,73901
2017-04-03T01:31:43.713Z,73901
2017-04-03T01:31:53.801Z,73900
2017-04-03T01:32:03.892Z,73901
2017-04-03T01:32:13.703Z,73899
2017-04-03T01:32:23.798Z,73901
2017-04-03T01:32:33.898Z,73901
2017-04-03T01:32:43.702Z,73900
2017-04-03T01:32:53.799Z,73901
2017-04-03T01:33:03.606Z,73903
2017-04-03T01:33:13.697Z,73901
2017-04-03T01:33:23.787Z,73904
2017-04-03T01:33:33.876Z,73901
2017-04-03T01:33:43.967Z,73903
2017-04-03T01:33:54.060Z,73905
2017-04-03T01:34:04.155Z,73904
2017-04-03T01:34:13.954Z,73902
2017-04-03T01:34:23.470Z,73899
2017-04-03T01:34:33.561Z,73900
2017-04-03T01:34:43.653Z,73901
2017-04-03T01:34:53.497Z,73901
2017-04-03T01:35:03.586Z,73900
2017-04-03T01:35:13.676Z,73903
2017-04-03T01:35:23.475Z,73903
2017-04-03T01:35:33.570Z,73900
2017-04-03T01:35:43.373Z,73899
2017-04-03T01:35:53.469Z,73903
2017-04-03T01:36:03.565Z,73900
2017-04-03T01:36:13.707Z,73900
2017-04-03T01:36:23.794Z,73899
2017-04-03T01:36:33.889Z,73899
2017-04-03T01:36:43.697Z,73902
2017-04-03T01:36:53.501Z,73899
2017-04-03T01:37:03.605Z,73900
2017-04-03T01:37:13.117Z,73904
2017-04-03T01:37:22.917Z,73900
2017-04-03T01:37:33.013Z,73901
2017-04-03T01:37:43.107Z,73904
2017-04-03T01:37:53.196Z,73901
2017-04-03T01:38:03.284Z,73899
2017-04-03T01:38:13.095Z,73899
2017-04-03T01:38:22.898Z,73897
2017-04-03T01:38:32.987Z,73900
2017-04-03T01:38:43.080Z,73897
2017-04-03T01:38:53.167Z,73901
2017-04-03T01:39:03.260Z,73901
2017-04-03T01:39:13.349Z,73900
2017-04-03T01:39:23.436Z,73897
2017-04-03T01:39:33.241Z,73901
2017-04-03T01:39:43.333Z,73900
2017-04-03T01:39:53.143Z,73898
2017-04-03T01:40:02.955Z,73901
2017-04-03T01:40:13.047Z,73896
2017-04-03T01:40:23.138Z,73896
2017-04-03T01:40:33.227Z,73896
2017-04-03T01:40:43.315Z,73898
2017-04-03T01:40:53.412Z,73896
2017-04-03T01:41:03.511Z,73899
2017-04-03T01:41:13.314Z,73900
2017-04-03T01:41:23.117Z,73902
2017-04-03T01:41:33.204Z,73901
2017-04-03T01:41:43.297Z,73901
2017-04-03T01:41:53.392Z,73899
2017-04-03T01:42:03.480Z,73898
2017-04-03T01:42:13.286Z,73901
2017-04-03T01:42:23.376Z,73905
2017-04-03T01:42:33.467Z,73903
2017-04-03T01:42:43.272Z,73901
2017-04-03T01:42:53.074Z,73902
2017-04-03T01:43:03.165Z,73909
2017-04-03T01:43:13.260Z,73903
2017-04-03T01:43:23.354Z,73906
2017-04-03T01:43:33.445Z,73910
2017-04-03T01:43:43.248Z,73905
2017-04-03T01:43:53.337Z,73907
2017-04-03T01:44:03.428Z,73906
2017-04-03T01:44:13.227Z,73906
2017-04-03T01:44:23.029Z,73911
2017-04-03T01:44:33.128Z,73907
2017-04-03T01:44:43.220Z,73911
2017-04-03T01:44:53.025Z,73910
2017-04-03T01:45:03.122Z,73905
2017-04-03T01:45:13.219Z,73909
2017-04-03T01:45:23.021Z,73908
2017-04-03T01:45:33.113Z,73907
2017-04-03T01:45:42.917Z,73910
2017-04-03T01:45:53.014Z,73909
2017-04-03T01:46:02.817Z,73907
2017-04-03T01:46:12.623Z,73906
2017-04-03T01:46:21.849Z,73907
2017-04-03T01:46:31.941Z,73904
2017-04-03T01:46:42.032Z,73905
2017-04-03T01:46:52.131Z,73905
2017-04-03T01:47:02.227Z,73906
2017-04-03T01:47:12.316Z,73903
2017-04-03T01:47:22.119Z,73907
2017-04-03T01:47:32.215Z,73906
2017-04-03T01:47:42.303Z,73908
2017-04-03T01:47:52.389Z,73910
2017-04-03T01:48:02.194Z,73910
2017-04-03T01:48:12.286Z,73908
2017-04-03T01:48:22.091Z,73904
2017-04-03T01:48:32.177Z,73907
2017-04-03T01:48:42.271Z,73908
2017-04-03T01:48:52.361Z,73906
2017-04-03T01:49:02.453Z,73909
2017-04-03T01:49:11.983Z,73905
2017-04-03T01:49:22.076Z,73903
2017-04-03T01:49:31.875Z,73905
2017-04-03T01:49:41.971Z,73906
2017-04-03T01:49:51.777Z,73905
2017-04-03T01:50:01.872Z,73908
2017-04-03T01:50:11.967Z,73909
2017-04-03T01:50:21.771Z,73906
2017-04-03T01:50:31.575Z,73906
2017-04-03T01:50:41.666Z,73905
2017-04-03T01:50:51.754Z,73905
2017-04-03T01:51:01.855Z,73905
2017-04-03T01:51:11.941Z,73904
2017-04-03T01:51:21.754Z,73904
2017-04-03T01:51:31.846Z,73907
2017-04-03T01:51:41.939Z,73903
2017-04-03T01:51:51.738Z,73906
2017-04-03T01:52:01.829Z,73905
2017-04-03T01:52:11.954Z,73908
2017-04-03T01:52:21.993Z,73908
2017-04-03T01:52:31.511Z,73905
2017-04-03T01:52:41.356Z,73908
2017-04-03T01:52:51.448Z,73908
2017-04-03T01:53:01.534Z,73904
2017-04-03T01:53:11.332Z,73908
2017-04-03T01:53:21.430Z,73909
2017-04-03T01:53:31.235Z,73907
2017-04-03T01:53:41.326Z,73905
2017-04-03T01:53:51.416Z,73906
2017-04-03T01:54:01.509Z,73907
2017-04-03T01:54:11.600Z,73908
2017-04-03T01:54:21.691Z,73908
2017-04-03T01:54:31.493Z,73906
2017-04-03T01:54:41.632Z,73910
2017-04-03T01:54:51.718Z,73910
2017-04-03T01:55:01.809Z,73908
2017-04-03T01:55:11.612Z,73909
2017-04-03T01:55:21.411Z,73906
2017-04-03T01:55:31.509Z,73908
2017-04-03T01:55:41.604Z,73910
2017-04-03T01:55:51.692Z,73907
2017-04-03T01:56:01.541Z,73906
2017-04-03T01:56:11.341Z,73907
2017-04-03T01:56:20.862Z,73912
2017-04-03T01:56:30.658Z,73910
2017-04-03T01:56:40.752Z,73911
2017-04-03T01:56:50.843Z,73912
2017-04-03T01:57:00.649Z,73909
2017-04-03T01:57:10.734Z,73909
2017-04-03T01:57:20.532Z,73907
2017-04-03T01:57:30.054Z,73910
2017-04-03T01:57:40.152Z,73905
2017-04-03T01:57:50.243Z,73910
2017-04-03T01:57:59.754Z,73910
2017-04-03T01:58:09.564Z,73913
2017-04-03T01:58:19.362Z,73910
2017-04-03T01:58:29.451Z,73912
2017-04-03T01:58:39.539Z,73910
2017-04-03T01:58:49.347Z,73910
2017-04-03T01:58:59.154Z,73912
2017-04-03T01:59:09.248Z,73910
2017-04-03T01:59:19.375Z,73910
2017-04-03T01:59:29.472Z,73911
2017-04-03T01:59:39.571Z,73909
2017-04-03T01:59:49.381Z,73908
2017-04-03T01:59:59.509Z,73906
2017-04-03T02:00:09.318Z,73907
2017-04-03T02:00:19.121Z,73906
2017-04-03T02:00:28.639Z,73910
2017-04-03T02:00:38.443Z,73911
2017-04-03T02:00:48.247Z,73911
2017-04-03T02:00:58.338Z,73910
2017-04-03T02:01:08.437Z,73911
2017-04-03T02:01:18.529Z,73911
2017-04-03T02:01:28.043Z,73911
2017-04-03T02:01:38.140Z,73912
2017-04-03T02:01:47.946Z,73911
2017-04-03T02:01:58.036Z,73909
2017-04-03T02:02:08.129Z,73911
2017-04-03T02:02:17.936Z,73912
2017-04-03T02:02:28.031Z,73912
2017-04-03T02:02:37.833Z,73914
2017-04-03T02:02:47.924Z,73913
2017-04-03T02:02:58.011Z,73914
2017-04-03T02:03:08.145Z,73914
2017-04-03T02:03:18.235Z,73914
2017-04-03T02:03:27.755Z,73911
2017-04-03T02:03:37.841Z,73914
2017-04-03T02:03:47.934Z,73912
2017-04-03T02:03:58.024Z,73911
2017-04-03T02:04:08.112Z,73912
2017-04-03T02:04:18.204Z,73912
2017-04-03T02:04:27.718Z,73913
2017-04-03T02:04:37.852Z,73913
2017-04-03T02:04:47.941Z,73911
2017-04-03T02:04:58.029Z,73907
2017-04-03T02:05:07.837Z,73909
2017-04-03T02:05:17.636Z,73911
2017-04-03T02:05:27.736Z,73911
2017-04-03T02:05:37.831Z,73908
2017-04-03T02:05:47.920Z,73908
2017-04-03T02:05:58.058Z,73908
2017-04-03T02:06:08.159Z,73908
2017-04-03T02:06:17.960Z,73907
2017-04-03T02:06:27.475Z,73909
2017-04-03T02:06:37.564Z,73910
2017-04-03T02:06:47.383Z,73911
2017-04-03T02:06:57.479Z,73913
2017-04-03T02:07:07.572Z,73906
2017-04-03T02:07:17.663Z,73912
2017-04-03T02:07:27.470Z,73907
2017-04-03T02:07:37.565Z,73911
2017-04-03T02:07:47.695Z,73913
2017-04-03T02:07:57.786Z,73908
2017-04-03T02:08:07.878Z,73911
2017-04-03T02:08:17.398Z,73910
2017-04-03T02:08:27.496Z,73909